createdAt,value
2019-06-27T00:04:15.622Z,19.70
2019-06-27T00:09:22.177Z,19.80
2019-06-27T00:14:28.616Z,19.60
2019-06-27T00:19:34.853Z,19.40
2019-06-27T00:24:41.053Z,19.40
2019-06-27T00:29:47.301Z,19.30
2019-06-27T00:34:53.696Z,19.20
2019-06-27T00:39:59.890Z,19.10
2019-06-27T00:45:07.546Z,19.00
2019-06-27T00:50:14.261Z,18.70
2019-06-27T00:55:20.499Z,18.80
2019-06-27T01:00:27.812Z,18.80
2019-06-27T01:05:34.070Z,18.80
2019-06-27T01:10:40.888Z,18.50
2019-06-27T01:15:47.260Z,18.50
2019-06-27T01:20:53.545Z,18.40
2019-06-27T01:25:59.730Z,18.30
2019-06-27T01:31:06.251Z,18.30
2019-06-27T01:36:12.944Z,18.20
2019-06-27T01:41:19.296Z,18.10
2019-06-27T01:46:25.936Z,18.10
2019-06-27T01:51:32.916Z,17.90
2019-06-27T01:56:39.048Z,18.00
2019-06-27T02:01:45.390Z,17.90
2019-06-27T02:06:53.343Z,17.80
2019-06-27T02:11:59.733Z,17.80
2019-06-27T02:17:06.023Z,17.80
2019-06-27T02:22:12.204Z,17.70
2019-06-27T02:27:18.451Z,17.90
2019-06-27T02:32:24.800Z,17.90
2019-06-27T02:37:31.194Z,17.90
2019-06-27T02:42:37.441Z,17.90
2019-06-27T02:47:43.715Z,17.90
2019-06-27T02:52:49.893Z,17.90
2019-06-27T02:57:58.183Z,17.80
2019-06-27T03:03:04.522Z,17.80
2019-06-27T03:08:11.179Z,17.70
2019-06-27T03:13:18.641Z,17.60
2019-06-27T03:18:24.958Z,17.50
2019-06-27T03:23:31.240Z,17.50
2019-06-27T03:28:51.869Z,17.50
2019-06-27T03:33:50.299Z,17.60
2019-06-27T03:38:56.856Z,17.70
2019-06-27T03:44:03.283Z,17.60
2019-06-27T03:49:10.480Z,17.50
2019-06-27T03:54:17.140Z,17.60
2019-06-27T03:59:23.445Z,17.60
2019-06-27T04:04:29.677Z,17.40
2019-06-27T04:09:35.867Z,17.40
2019-06-27T04:14:42.172Z,17.40
2019-06-27T04:19:48.666Z,17.40
2019-06-27T04:24:55.938Z,17.30
2019-06-27T04:30:02.362Z,17.40
2019-06-27T04:35:09.864Z,17.60
2019-06-27T04:40:16.365Z,17.60
2019-06-27T04:45:22.867Z,17.60
2019-06-27T04:50:29.274Z,17.60
2019-06-27T04:55:35.531Z,17.70
2019-06-27T05:00:42.009Z,17.70
2019-06-27T05:05:48.867Z,17.70
2019-06-27T05:10:55.070Z,17.50
2019-06-27T05:16:01.329Z,17.50
2019-06-27T05:21:07.539Z,17.50
2019-06-27T05:26:14.052Z,17.80
2019-06-27T05:31:21.064Z,17.60
2019-06-27T05:36:27.309Z,17.80
2019-06-27T05:41:35.458Z,17.70
2019-06-27T05:46:42.195Z,17.70
2019-06-27T05:51:48.649Z,17.70
2019-06-27T05:56:55.068Z,17.70
2019-06-27T06:02:01.427Z,17.80
2019-06-27T06:07:07.726Z,17.90
2019-06-27T06:12:14.153Z,18.10
2019-06-27T06:17:21.258Z,18.20
2019-06-27T06:22:28.693Z,18.10
2019-06-27T06:27:35.206Z,18.80
2019-06-27T06:32:41.696Z,19.30
2019-06-27T06:37:48.245Z,19.00
2019-06-27T06:42:58.018Z,18.90
2019-06-27T06:48:03.298Z,19.10
2019-06-27T06:53:10.631Z,19.50
2019-06-27T06:58:17.358Z,19.30
2019-06-27T07:03:23.866Z,19.30
2019-06-27T07:08:30.387Z,19.50
2019-06-27T07:13:36.785Z,19.70
2019-06-27T07:18:43.933Z,19.90
2019-06-27T07:23:50.329Z,20.20
2019-06-27T07:29:04.460Z,20.20
2019-06-27T07:34:11.889Z,20.10
2019-06-27T07:39:18.261Z,20.70
2019-06-27T07:44:24.609Z,21.20
2019-06-27T07:49:33.156Z,21.50
2019-06-27T07:54:38.980Z,21.80
2019-06-27T07:59:45.353Z,22.00
2019-06-27T08:04:52.742Z,21.60
2019-06-27T08:09:58.962Z,22.50
2019-06-27T08:15:05.997Z,22.80
2019-06-27T08:20:12.740Z,23.10
2019-06-27T08:25:19.219Z,23.20
2019-06-27T08:30:25.693Z,23.20
2019-06-27T08:35:33.658Z,23.60
2019-06-27T08:40:40.406Z,23.90
2019-06-27T08:45:46.660Z,24.30
2019-06-27T08:50:53.002Z,24.60
2019-06-27T08:55:59.558Z,24.20
2019-06-27T09:01:06.073Z,24.50
2019-06-27T09:06:12.407Z,24.70
2019-06-27T09:11:18.728Z,25.40
2019-06-27T09:16:25.063Z,24.60
2019-06-27T09:21:31.252Z,25.90
2019-06-27T09:26:37.493Z,25.10
2019-06-27T09:31:46.337Z,25.90
2019-06-27T09:36:53.664Z,26.00
2019-06-27T09:42:00.450Z,26.20
2019-06-27T09:47:06.829Z,26.40
2019-06-27T09:52:13.313Z,26.90
2019-06-27T09:57:19.969Z,27.40
2019-06-27T10:02:40.588Z,27.20
2019-06-27T10:07:35.154Z,27.10
2019-06-27T10:12:43.161Z,27.40
2019-06-27T10:17:49.729Z,27.30
2019-06-27T10:22:55.897Z,27.60
2019-06-27T10:28:02.285Z,27.80
2019-06-27T10:33:09.185Z,28.10
2019-06-27T10:38:15.664Z,28.00
2019-06-27T10:43:22.406Z,27.80
2019-06-27T10:48:28.971Z,27.80
2019-06-27T10:53:36.601Z,27.60
2019-06-27T10:58:43.432Z,27.70
2019-06-27T11:03:49.979Z,28.10
2019-06-27T11:08:56.328Z,28.00
2019-06-27T11:14:03.920Z,28.20
2019-06-27T11:19:10.372Z,28.10
2019-06-27T11:24:16.908Z,28.40
2019-06-27T11:29:23.663Z,28.60
2019-06-27T11:34:30.193Z,28.60
2019-06-27T11:39:36.688Z,28.30
2019-06-27T11:44:43.223Z,27.70
2019-06-27T11:49:49.577Z,28.30
2019-06-27T11:54:55.784Z,28.40
2019-06-27T12:00:02.281Z,28.50
2019-06-27T12:05:10.303Z,28.60
2019-06-27T12:10:16.695Z,28.60
2019-06-27T12:15:22.948Z,28.60
2019-06-27T12:20:29.596Z,28.80
2019-06-27T12:25:36.294Z,28.70
2019-06-27T12:30:44.548Z,28.70
2019-06-27T12:35:51.125Z,28.90
2019-06-27T12:40:57.375Z,28.80
2019-06-27T12:46:04.022Z,29.20
2019-06-27T12:51:10.236Z,28.90
2019-06-27T12:56:16.770Z,28.90
2019-06-27T13:01:23.015Z,28.70
2019-06-27T13:06:29.309Z,29.00
2019-06-27T13:11:35.675Z,29.10
2019-06-27T13:16:42.022Z,29.20
2019-06-27T13:21:48.301Z,29.10
2019-06-27T13:26:54.624Z,29.20
2019-06-27T13:32:01.247Z,29.10
2019-06-27T13:37:07.676Z,28.90
2019-06-27T13:42:13.990Z,29.40
2019-06-27T13:47:20.778Z,29.40
2019-06-27T13:52:27.246Z,29.40
2019-06-27T13:57:34.826Z,29.40
2019-06-27T14:02:41.181Z,29.30
2019-06-27T14:07:49.489Z,29.60
2019-06-27T14:12:56.008Z,29.40
2019-06-27T14:18:02.321Z,29.40
2019-06-27T14:23:08.655Z,29.40
2019-06-27T14:28:15.141Z,29.70
2019-06-27T14:33:21.541Z,29.80
2019-06-27T14:38:27.888Z,29.70
2019-06-27T14:43:37.755Z,29.60
2019-06-27T14:48:42.726Z,29.90
2019-06-27T14:53:49.116Z,29.60
2019-06-27T14:58:55.684Z,29.80
2019-06-27T15:04:01.956Z,29.90
2019-06-27T15:09:08.455Z,29.50
2019-06-27T15:14:15.173Z,29.80
2019-06-27T15:19:21.586Z,29.70
2019-06-27T15:24:27.890Z,29.60
2019-06-27T15:29:34.090Z,29.70
2019-06-27T15:34:41.721Z,29.80
2019-06-27T15:39:48.233Z,29.70
2019-06-27T15:44:54.699Z,29.70
2019-06-27T15:50:00.988Z,29.60
2019-06-27T15:55:10.803Z,29.40
2019-06-27T16:00:16.249Z,29.40
2019-06-27T16:05:22.718Z,28.80
2019-06-27T16:10:30.937Z,29.30
2019-06-27T16:15:37.121Z,29.00
2019-06-27T16:20:44.040Z,28.80
2019-06-27T16:25:51.394Z,28.70
2019-06-27T16:30:57.674Z,28.60
2019-06-27T16:36:05.764Z,28.50
2019-06-27T16:41:12.176Z,28.50
2019-06-27T16:46:18.464Z,28.20
2019-06-27T16:51:24.907Z,28.30
2019-06-27T16:56:31.648Z,28.30
2019-06-27T17:01:39.402Z,28.00
2019-06-27T17:06:47.386Z,27.80
2019-06-27T17:11:54.310Z,27.60
2019-06-27T17:17:00.940Z,27.70
2019-06-27T17:22:07.512Z,27.80
2019-06-27T17:27:13.953Z,27.80
2019-06-27T17:32:20.365Z,27.70
2019-06-27T17:37:26.839Z,27.40
2019-06-27T17:42:33.610Z,27.10
2019-06-27T17:47:40.163Z,26.70
2019-06-27T17:52:46.508Z,26.50
2019-06-27T17:57:52.858Z,26.10
2019-06-27T18:02:59.817Z,26.00
2019-06-27T18:08:06.178Z,25.80
2019-06-27T18:13:12.413Z,25.60
2019-06-27T18:18:18.868Z,25.50
2019-06-27T18:23:25.168Z,25.40
2019-06-27T18:28:32.135Z,25.10
2019-06-27T18:33:38.610Z,24.90
2019-06-27T18:38:45.667Z,24.60
2019-06-27T18:43:51.984Z,24.60
2019-06-27T18:48:58.283Z,24.30
2019-06-27T18:54:04.898Z,24.10
2019-06-27T18:59:11.389Z,24.20
2019-06-27T19:04:17.626Z,23.90
2019-06-27T19:09:23.958Z,23.80
2019-06-27T19:14:30.521Z,23.60
2019-06-27T19:19:40.157Z,23.50
2019-06-27T19:24:52.219Z,23.30
2019-06-27T19:29:59.016Z,23.20
2019-06-27T19:35:06.356Z,23.00
2019-06-27T19:40:13.266Z,22.80
2019-06-27T19:45:20.097Z,22.70
2019-06-27T19:50:26.390Z,22.50
2019-06-27T19:55:33.135Z,22.40
2019-06-27T20:00:39.801Z,22.40
2019-06-27T20:05:46.102Z,22.20
2019-06-27T20:10:52.596Z,22.10
2019-06-27T20:15:59.100Z,21.80
2019-06-27T20:21:05.856Z,21.70
2019-06-27T20:26:13.945Z,21.70
2019-06-27T20:31:20.946Z,21.40
2019-06-27T20:36:27.661Z,21.50
2019-06-27T20:41:34.021Z,21.40
2019-06-27T20:46:40.297Z,21.40
2019-06-27T20:51:46.687Z,21.00
2019-06-27T20:56:53.789Z,21.10
2019-06-27T21:02:00.759Z,21.10
2019-06-27T21:07:09.883Z,20.80
2019-06-27T21:12:15.323Z,20.80
2019-06-27T21:17:21.601Z,20.60
2019-06-27T21:22:28.321Z,20.40
2019-06-27T21:27:34.968Z,20.50
2019-06-27T21:32:41.316Z,20.20
2019-06-27T21:37:47.703Z,20.20
2019-06-27T21:42:55.572Z,20.20
2019-06-27T21:48:02.154Z,20.00
2019-06-27T21:53:10.175Z,19.90
2019-06-27T21:58:16.467Z,19.90
2019-06-27T22:03:22.650Z,19.80
2019-06-27T22:08:29.179Z,19.60
2019-06-27T22:13:35.702Z,19.60
2019-06-27T22:18:42.175Z,19.40
2019-06-27T22:23:48.527Z,19.30
2019-06-27T22:28:57.404Z,19.20
2019-06-27T22:34:03.629Z,19.20
2019-06-27T22:39:40.015Z,19.00
2019-06-27T22:44:53.047Z,18.80
2019-06-27T22:50:08.826Z,18.80
2019-06-27T22:55:19.090Z,18.70
2019-06-27T23:00:25.788Z,18.70
2019-06-27T23:05:32.012Z,18.50
2019-06-27T23:10:38.215Z,18.50
2019-06-27T23:15:44.598Z,18.20
2019-06-27T23:20:50.832Z,18.20
2019-06-27T23:25:57.288Z,18.20
2019-06-27T23:31:03.511Z,18.00
2019-06-27T23:36:09.750Z,17.90
2019-06-27T23:41:16.042Z,17.90
2019-06-27T23:46:43.545Z,17.80
2019-06-27T23:51:49.712Z,17.70
2019-06-27T23:56:56.155Z,17.40
